sensor_id;sensor_type;location;lat;lon;timestamp;noise_LAeq;noise_LA_min;noise_LA_max;noise_LA01;noise_LA95
186;Laerm;55473;48.800;9.002;2023-06-22T00:02:18;43.84;38.15;52.69;;
186;Laerm;55473;48.800;9.002;2023-06-22T00:04:44;44.00;37.79;54.11;;
186;Laerm;55473;48.800;9.002;2023-06-22T00:07:10;44.13;38.42;54.41;;
186;Laerm;55473;48.800;9.002;2023-06-22T00:09:36;43.86;37.22;53.70;;
186;Laerm;55473;48.800;9.002;2023-06-22T00:12:02;43.89;37.49;59.60;;
186;Laerm;55473;48.800;9.002;2023-06-22T00:14:29;43.95;38.69;52.32;;
186;Laerm;55473;48.800;9.002;2023-06-22T00:16:54;43.86;38.55;53.01;;
186;Laerm;55473;48.800;9.002;2023-06-22T00:19:23;43.94;38.31;54.64;;
186;Laerm;55473;48.800;9.002;2023-06-22T00:21:50;43.89;37.45;55.46;;
186;Laerm;55473;48.800;9.002;2023-06-22T00:24:20;43.89;38.64;55.71;;
186;Laerm;55473;48.800;9.002;2023-06-22T00:26:48;43.96;38.33;54.29;;
186;Laerm;55473;48.800;9.002;2023-06-22T00:29:14;43.94;38.53;52.33;;
186;Laerm;55473;48.800;9.002;2023-06-22T00:31:40;44.17;38.61;53.11;;
186;Laerm;55473;48.800;9.002;2023-06-22T00:34:06;44.18;38.64;57.31;;
186;Laerm;55473;48.800;9.002;2023-06-22T00:36:35;44.25;39.11;53.34;;
186;Laerm;55473;48.800;9.002;2023-06-22T00:39:01;44.01;38.15;53.26;;
186;Laerm;55473;48.800;9.002;2023-06-22T00:41:27;44.02;38.09;54.19;;
186;Laerm;55473;48.800;9.002;2023-06-22T00:43:56;43.96;38.35;53.51;;
186;Laerm;55473;48.800;9.002;2023-06-22T00:46:23;43.88;37.71;52.94;;
186;Laerm;55473;48.800;9.002;2023-06-22T00:48:50;43.95;38.15;55.33;;
186;Laerm;55473;48.800;9.002;2023-06-22T00:51:17;44.00;38.20;52.35;;
186;Laerm;55473;48.800;9.002;2023-06-22T00:53:51;43.91;38.03;52.31;;
186;Laerm;55473;48.800;9.002;2023-06-22T00:56:18;44.10;38.98;53.03;;
186;Laerm;55473;48.800;9.002;2023-06-22T00:58:46;44.05;38.50;52.04;;
186;Laerm;55473;48.800;9.002;2023-06-22T01:01:13;43.96;38.43;52.40;;
186;Laerm;55473;48.800;9.002;2023-06-22T01:03:39;43.95;38.65;58.23;;
186;Laerm;55473;48.800;9.002;2023-06-22T01:06:13;43.88;38.10;55.60;;
186;Laerm;55473;48.800;9.002;2023-06-22T01:08:48;43.96;38.70;55.10;;
186;Laerm;55473;48.800;9.002;2023-06-22T01:11:32;43.95;38.31;56.19;;
186;Laerm;55473;48.800;9.002;2023-06-22T01:14:18;44.06;38.31;51.66;;
186;Laerm;55473;48.800;9.002;2023-06-22T01:16:48;43.80;38.17;52.84;;
186;Laerm;55473;48.800;9.002;2023-06-22T01:19:50;44.06;38.98;52.41;;
186;Laerm;55473;48.800;9.002;2023-06-22T01:22:32;43.97;38.48;54.81;;
186;Laerm;55473;48.800;9.002;2023-06-22T01:25:28;43.92;38.50;54.78;;
186;Laerm;55473;48.800;9.002;2023-06-22T01:29:05;44.04;38.65;53.80;;
186;Laerm;55473;48.800;9.002;2023-06-22T01:31:10;44.06;38.32;56.96;;
186;Laerm;55473;48.800;9.002;2023-06-22T01:33:42;44.19;39.00;54.32;;
186;Laerm;55473;48.800;9.002;2023-06-22T01:36:10;44.32;38.37;53.09;;
186;Laerm;55473;48.800;9.002;2023-06-22T01:38:37;44.58;38.25;53.57;;
186;Laerm;55473;48.800;9.002;2023-06-22T01:41:04;44.58;38.54;54.01;;
186;Laerm;55473;48.800;9.002;2023-06-22T01:43:30;44.05;38.35;55.93;;
186;Laerm;55473;48.800;9.002;2023-06-22T01:46:00;44.13;38.32;59.48;;
186;Laerm;55473;48.800;9.002;2023-06-22T01:48:27;43.93;38.30;53.69;;
186;Laerm;55473;48.800;9.002;2023-06-22T01:50:53;44.04;38.33;54.55;;
186;Laerm;55473;48.800;9.002;2023-06-22T01:53:24;43.94;37.76;52.69;;
186;Laerm;55473;48.800;9.002;2023-06-22T01:55:50;44.04;38.29;53.17;;
186;Laerm;55473;48.800;9.002;2023-06-22T01:58:17;44.02;38.34;56.23;;
186;Laerm;55473;48.800;9.002;2023-06-22T02:03:41;45.11;37.90;55.70;;
186;Laerm;55473;48.800;9.002;2023-06-22T02:06:23;45.44;39.25;56.65;;
186;Laerm;55473;48.800;9.002;2023-06-22T02:08:58;48.12;38.83;65.48;;
186;Laerm;55473;48.800;9.002;2023-06-22T02:11:27;44.35;38.80;52.77;;
186;Laerm;55473;48.800;9.002;2023-06-22T02:13:57;44.64;39.02;54.48;;
186;Laerm;55473;48.800;9.002;2023-06-22T02:16:23;46.85;39.20;61.68;;
186;Laerm;55473;48.800;9.002;2023-06-22T02:18:51;47.15;39.15;62.14;;
186;Laerm;55473;48.800;9.002;2023-06-22T02:21:21;48.26;39.48;62.42;;
186;Laerm;55473;48.800;9.002;2023-06-22T02:23:47;48.34;38.81;64.51;;
186;Laerm;55473;48.800;9.002;2023-06-22T02:26:16;46.64;39.95;63.30;;
186;Laerm;55473;48.800;9.002;2023-06-22T02:28:43;47.75;38.80;56.58;;
186;Laerm;55473;48.800;9.002;2023-06-22T02:31:08;48.40;40.32;61.19;;
186;Laerm;55473;48.800;9.002;2023-06-22T02:33:34;51.51;40.49;65.08;;
186;Laerm;55473;48.800;9.002;2023-06-22T02:36:00;52.41;40.53;66.62;;
186;Laerm;55473;48.800;9.002;2023-06-22T02:38:31;52.76;40.81;68.47;;
186;Laerm;55473;48.800;9.002;2023-06-22T02:40:59;54.09;41.74;69.03;;
186;Laerm;55473;48.800;9.002;2023-06-22T02:43:26;55.27;42.41;68.59;;
186;Laerm;55473;48.800;9.002;2023-06-22T02:45:51;55.19;41.76;69.49;;
186;Laerm;55473;48.800;9.002;2023-06-22T02:48:17;57.51;42.17;69.02;;
186;Laerm;55473;48.800;9.002;2023-06-22T02:50:43;56.17;42.64;67.97;;
186;Laerm;55473;48.800;9.002;2023-06-22T02:53:09;56.13;42.01;68.21;;
186;Laerm;55473;48.800;9.002;2023-06-22T02:55:36;56.05;41.65;67.71;;
186;Laerm;55473;48.800;9.002;2023-06-22T02:58:02;55.65;41.91;68.24;;
186;Laerm;55473;48.800;9.002;2023-06-22T03:00:31;53.79;40.95;67.88;;
186;Laerm;55473;48.800;9.002;2023-06-22T03:02:58;53.01;41.66;64.89;;
186;Laerm;55473;48.800;9.002;2023-06-22T03:05:24;54.69;42.23;66.77;;
186;Laerm;55473;48.800;9.002;2023-06-22T03:07:50;53.98;41.78;66.93;;
186;Laerm;55473;48.800;9.002;2023-06-22T03:10:16;53.88;41.99;66.43;;
186;Laerm;55473;48.800;9.002;2023-06-22T03:12:43;54.13;41.68;70.68;;
186;Laerm;55473;48.800;9.002;2023-06-22T03:15:12;55.96;42.01;69.54;;
186;Laerm;55473;48.800;9.002;2023-06-22T03:17:39;56.69;42.64;69.25;;
186;Laerm;55473;48.800;9.002;2023-06-22T03:20:08;56.94;43.04;69.57;;
186;Laerm;55473;48.800;9.002;2023-06-22T03:22:37;53.48;41.08;69.30;;
186;Laerm;55473;48.800;9.002;2023-06-22T03:25:04;53.55;41.82;65.43;;
186;Laerm;55473;48.800;9.002;2023-06-22T03:27:30;54.23;42.20;65.63;;
186;Laerm;55473;48.800;9.002;2023-06-22T03:29:57;54.01;42.49;66.92;;
186;Laerm;55473;48.800;9.002;2023-06-22T03:32:23;52.89;41.65;66.56;;
186;Laerm;55473;48.800;9.002;2023-06-22T03:34:49;50.81;42.53;61.12;;
186;Laerm;55473;48.800;9.002;2023-06-22T03:37:15;49.35;41.35;61.32;;
186;Laerm;55473;48.800;9.002;2023-06-22T03:39:41;49.42;40.90;64.15;;
186;Laerm;55473;48.800;9.002;2023-06-22T03:42:08;53.19;40.19;75.40;;
186;Laerm;55473;48.800;9.002;2023-06-22T03:44:35;52.74;41.25;65.64;;
186;Laerm;55473;48.800;9.002;2023-06-22T03:47:05;54.45;41.15;74.60;;
186;Laerm;55473;48.800;9.002;2023-06-22T03:49:33;52.11;41.58;68.99;;
186;Laerm;55473;48.800;9.002;2023-06-22T03:52:01;55.33;41.68;70.74;;
186;Laerm;55473;48.800;9.002;2023-06-22T03:54:30;53.90;41.18;68.27;;
186;Laerm;55473;48.800;9.002;2023-06-22T03:56:58;56.64;41.25;69.81;;
186;Laerm;55473;48.800;9.002;2023-06-22T03:59:24;56.25;41.28;70.51;;
186;Laerm;55473;48.800;9.002;2023-06-22T04:01:50;54.10;41.85;68.24;;
186;Laerm;55473;48.800;9.002;2023-06-22T04:04:18;52.64;44.81;63.61;;
186;Laerm;55473;48.800;9.002;2023-06-22T04:06:44;56.75;42.10;70.12;;
186;Laerm;55473;48.800;9.002;2023-06-22T04:09:10;56.38;41.83;69.82;;
186;Laerm;55473;48.800;9.002;2023-06-22T04:11:36;53.63;42.56;66.95;;
186;Laerm;55473;48.800;9.002;2023-06-22T04:14:02;54.26;41.14;72.82;;
186;Laerm;55473;48.800;9.002;2023-06-22T04:16:28;51.59;41.75;68.41;;
186;Laerm;55473;48.800;9.002;2023-06-22T04:18:54;54.73;42.43;66.99;;
186;Laerm;55473;48.800;9.002;2023-06-22T04:21:20;54.10;42.81;70.84;;
186;Laerm;55473;48.800;9.002;2023-06-22T04:23:46;56.24;42.17;72.12;;
186;Laerm;55473;48.800;9.002;2023-06-22T04:26:13;55.49;41.56;71.74;;
186;Laerm;55473;48.800;9.002;2023-06-22T04:28:41;49.29;40.83;67.81;;
186;Laerm;55473;48.800;9.002;2023-06-22T04:31:07;49.44;41.33;59.39;;
186;Laerm;55473;48.800;9.002;2023-06-22T04:33:33;50.63;41.95;60.93;;
186;Laerm;55473;48.800;9.002;2023-06-22T04:35:59;49.12;41.53;62.83;;
186;Laerm;55473;48.800;9.002;2023-06-22T04:38:29;49.10;42.43;61.19;;
186;Laerm;55473;48.800;9.002;2023-06-22T04:40:59;50.62;41.61;62.82;;
186;Laerm;55473;48.800;9.002;2023-06-22T04:43:27;53.41;42.81;70.97;;
186;Laerm;55473;48.800;9.002;2023-06-22T04:45:57;54.27;42.71;69.88;;
186;Laerm;55473;48.800;9.002;2023-06-22T04:48:30;52.42;43.10;65.84;;
186;Laerm;55473;48.800;9.002;2023-06-22T04:51:00;51.86;42.31;65.29;;
186;Laerm;55473;48.800;9.002;2023-06-22T04:53:30;48.45;42.86;62.99;;
186;Laerm;55473;48.800;9.002;2023-06-22T04:55:56;55.15;41.80;70.54;;
186;Laerm;55473;48.800;9.002;2023-06-22T04:58:22;54.93;42.82;69.67;;
186;Laerm;55473;48.800;9.002;2023-06-22T05:00:48;51.43;41.98;66.35;;
186;Laerm;55473;48.800;9.002;2023-06-22T05:03:17;53.56;42.36;65.22;;
186;Laerm;55473;48.800;9.002;2023-06-22T05:05:44;54.20;44.17;66.70;;
186;Laerm;55473;48.800;9.002;2023-06-22T05:08:10;54.63;42.37;67.28;;
186;Laerm;55473;48.800;9.002;2023-06-22T05:10:36;55.12;42.93;71.80;;
186;Laerm;55473;48.800;9.002;2023-06-22T05:13:02;56.40;42.96;69.37;;
186;Laerm;55473;48.800;9.002;2023-06-22T05:15:27;54.24;42.63;67.19;;
186;Laerm;55473;48.800;9.002;2023-06-22T05:17:56;55.32;44.17;66.67;;
186;Laerm;55473;48.800;9.002;2023-06-22T05:20:22;55.14;43.79;67.51;;
186;Laerm;55473;48.800;9.002;2023-06-22T05:22:48;53.98;43.33;70.05;;
186;Laerm;55473;48.800;9.002;2023-06-22T05:25:14;54.33;42.72;68.95;;
186;Laerm;55473;48.800;9.002;2023-06-22T05:27:42;54.64;42.06;67.65;;
186;Laerm;55473;48.800;9.002;2023-06-22T05:30:10;53.82;42.97;67.60;;
186;Laerm;55473;48.800;9.002;2023-06-22T05:32:37;54.39;44.40;65.08;;
186;Laerm;55473;48.800;9.002;2023-06-22T05:35:06;51.59;44.89;63.38;;
186;Laerm;55473;48.800;9.002;2023-06-22T05:37:32;52.54;44.47;68.67;;
186;Laerm;55473;48.800;9.002;2023-06-22T05:39:58;57.34;43.43;70.32;;
186;Laerm;55473;48.800;9.002;2023-06-22T05:42:24;56.46;44.27;71.78;;
186;Laerm;55473;48.800;9.002;2023-06-22T05:44:52;49.77;42.71;62.79;;
186;Laerm;55473;48.800;9.002;2023-06-22T05:47:19;54.59;42.70;68.31;;
186;Laerm;55473;48.800;9.002;2023-06-22T05:49:44;57.17;43.05;73.07;;
186;Laerm;55473;48.800;9.002;2023-06-22T05:52:11;57.31;42.40;72.77;;
186;Laerm;55473;48.800;9.002;2023-06-22T05:54:37;54.32;42.72;70.76;;
186;Laerm;55473;48.800;9.002;2023-06-22T05:57:04;53.65;42.59;67.22;;
186;Laerm;55473;48.800;9.002;2023-06-22T05:59:30;55.88;43.71;67.13;;
186;Laerm;55473;48.800;9.002;2023-06-22T06:01:56;55.21;42.88;67.94;;
186;Laerm;55473;48.800;9.002;2023-06-22T06:04:22;55.33;42.25;67.80;;
186;Laerm;55473;48.800;9.002;2023-06-22T06:06:48;55.11;41.67;68.07;;
186;Laerm;55473;48.800;9.002;2023-06-22T06:09:14;54.94;42.69;68.78;;
186;Laerm;55473;48.800;9.002;2023-06-22T06:11:40;54.02;41.74;66.94;;
186;Laerm;55473;48.800;9.002;2023-06-22T06:14:06;53.67;42.23;69.08;;
186;Laerm;55473;48.800;9.002;2023-06-22T06:16:32;51.75;41.62;68.57;;
186;Laerm;55473;48.800;9.002;2023-06-22T06:18:58;53.13;42.58;63.95;;
186;Laerm;55473;48.800;9.002;2023-06-22T06:21:24;51.50;40.81;68.32;;
186;Laerm;55473;48.800;9.002;2023-06-22T06:23:50;50.43;42.04;63.22;;
186;Laerm;55473;48.800;9.002;2023-06-22T06:26:16;51.63;42.27;66.97;;
186;Laerm;55473;48.800;9.002;2023-06-22T06:28:43;52.61;41.60;68.13;;
186;Laerm;55473;48.800;9.002;2023-06-22T06:31:09;48.78;41.38;60.61;;
186;Laerm;55473;48.800;9.002;2023-06-22T06:33:36;48.73;41.36;59.86;;
186;Laerm;55473;48.800;9.002;2023-06-22T06:36:02;48.79;40.86;61.33;;
186;Laerm;55473;48.800;9.002;2023-06-22T06:38:32;52.10;42.29;69.08;;
186;Laerm;55473;48.800;9.002;2023-06-22T06:40:58;49.23;42.13;63.13;;
186;Laerm;55473;48.800;9.002;2023-06-22T06:43:25;49.69;40.95;60.15;;
186;Laerm;55473;48.800;9.002;2023-06-22T06:45:51;56.61;41.43;72.10;;
186;Laerm;55473;48.800;9.002;2023-06-22T06:48:17;52.85;44.02;68.80;;
186;Laerm;55473;48.800;9.002;2023-06-22T06:50:43;51.91;41.70;68.20;;
186;Laerm;55473;48.800;9.002;2023-06-22T06:53:10;47.94;41.13;57.79;;
186;Laerm;55473;48.800;9.002;2023-06-22T06:55:36;47.75;41.10;60.07;;
186;Laerm;55473;48.800;9.002;2023-06-22T06:58:04;50.02;40.38;60.79;;
186;Laerm;55473;48.800;9.002;2023-06-22T07:00:33;50.14;41.61;60.72;;
186;Laerm;55473;48.800;9.002;2023-06-22T07:02:59;51.27;41.41;63.37;;
186;Laerm;55473;48.800;9.002;2023-06-22T07:05:25;56.41;42.61;71.33;;
186;Laerm;55473;48.800;9.002;2023-06-22T07:07:51;53.64;42.06;73.20;;
186;Laerm;55473;48.800;9.002;2023-06-22T07:10:16;53.53;42.00;64.27;;
186;Laerm;55473;48.800;9.002;2023-06-22T07:12:42;55.03;41.62;69.41;;
186;Laerm;55473;48.800;9.002;2023-06-22T07:15:10;53.67;40.96;69.82;;
186;Laerm;55473;48.800;9.002;2023-06-22T07:17:37;58.14;41.05;74.39;;
186;Laerm;55473;48.800;9.002;2023-06-22T07:20:05;56.82;42.54;72.94;;
186;Laerm;55473;48.800;9.002;2023-06-22T07:22:36;51.63;41.32;66.36;;
186;Laerm;55473;48.800;9.002;2023-06-22T07:25:02;53.74;43.06;64.80;;
186;Laerm;55473;48.800;9.002;2023-06-22T07:27:37;52.47;41.69;64.18;;
186;Laerm;55473;48.800;9.002;2023-06-22T07:30:04;58.17;41.59;75.15;;
186;Laerm;55473;48.800;9.002;2023-06-22T07:32:30;56.71;41.43;78.79;;
186;Laerm;55473;48.800;9.002;2023-06-22T07:34:56;55.56;40.69;68.25;;
186;Laerm;55473;48.800;9.002;2023-06-22T07:37:22;57.12;41.24;73.65;;
186;Laerm;55473;48.800;9.002;2023-06-22T07:39:48;52.70;40.30;67.08;;
186;Laerm;55473;48.800;9.002;2023-06-22T07:42:16;53.02;41.28;65.32;;
186;Laerm;55473;48.800;9.002;2023-06-22T07:44:44;55.79;41.67;69.60;;
186;Laerm;55473;48.800;9.002;2023-06-22T07:47:10;56.60;41.55;73.31;;
186;Laerm;55473;48.800;9.002;2023-06-22T07:49:36;53.61;41.23;68.58;;
186;Laerm;55473;48.800;9.002;2023-06-22T07:52:02;56.98;42.68;72.36;;
186;Laerm;55473;48.800;9.002;2023-06-22T07:54:28;54.97;40.57;72.12;;
186;Laerm;55473;48.800;9.002;2023-06-22T07:56:53;50.97;40.91;63.89;;
186;Laerm;55473;48.800;9.002;2023-06-22T07:59:19;53.89;42.04;68.20;;
186;Laerm;55473;48.800;9.002;2023-06-22T08:01:45;56.69;42.01;70.94;;
186;Laerm;55473;48.800;9.002;2023-06-22T08:04:11;56.18;42.15;71.20;;
186;Laerm;55473;48.800;9.002;2023-06-22T08:06:37;55.33;40.27;71.87;;
186;Laerm;55473;48.800;9.002;2023-06-22T08:09:03;57.67;40.57;71.84;;
186;Laerm;55473;48.800;9.002;2023-06-22T08:11:29;55.59;41.37;74.88;;
186;Laerm;55473;48.800;9.002;2023-06-22T08:13:55;55.30;41.52;70.18;;
186;Laerm;55473;48.800;9.002;2023-06-22T08:16:21;54.61;42.02;69.28;;
186;Laerm;55473;48.800;9.002;2023-06-22T08:18:47;54.50;43.02;67.06;;
186;Laerm;55473;48.800;9.002;2023-06-22T08:21:13;55.71;41.36;66.67;;
186;Laerm;55473;48.800;9.002;2023-06-22T08:23:39;49.63;41.83;59.94;;
186;Laerm;55473;48.800;9.002;2023-06-22T08:26:05;49.93;41.38;64.46;;
186;Laerm;55473;48.800;9.002;2023-06-22T08:28:31;49.92;40.79;62.90;;
186;Laerm;55473;48.800;9.002;2023-06-22T08:30:57;50.27;41.32;61.14;;
186;Laerm;55473;48.800;9.002;2023-06-22T08:33:23;54.44;42.33;65.78;;
186;Laerm;55473;48.800;9.002;2023-06-22T08:35:55;50.13;41.76;64.47;;
186;Laerm;55473;48.800;9.002;2023-06-22T08:38:21;57.01;41.92;71.96;;
186;Laerm;55473;48.800;9.002;2023-06-22T08:40:47;56.74;41.81;74.46;;
186;Laerm;55473;48.800;9.002;2023-06-22T08:43:13;51.57;41.89;63.73;;
186;Laerm;55473;48.800;9.002;2023-06-22T08:45:40;52.77;41.77;70.47;;
186;Laerm;55473;48.800;9.002;2023-06-22T08:48:06;54.91;43.67;65.09;;
186;Laerm;55473;48.800;9.002;2023-06-22T08:50:32;49.57;42.07;61.58;;
186;Laerm;55473;48.800;9.002;2023-06-22T08:52:57;48.67;41.26;63.00;;
186;Laerm;55473;48.800;9.002;2023-06-22T08:55:23;50.21;42.05;64.00;;
186;Laerm;55473;48.800;9.002;2023-06-22T08:57:49;50.50;42.43;63.10;;
186;Laerm;55473;48.800;9.002;2023-06-22T09:00:16;54.61;42.70;69.45;;
186;Laerm;55473;48.800;9.002;2023-06-22T09:02:44;52.32;43.71;64.41;;
186;Laerm;55473;48.800;9.002;2023-06-22T09:05:10;52.40;42.72;64.38;;
186;Laerm;55473;48.800;9.002;2023-06-22T09:07:36;56.10;41.83;71.42;;
186;Laerm;55473;48.800;9.002;2023-06-22T09:10:03;55.23;41.84;69.99;;
186;Laerm;55473;48.800;9.002;2023-06-22T09:12:32;55.71;42.71;69.42;;
186;Laerm;55473;48.800;9.002;2023-06-22T09:15:00;50.73;42.94;61.60;;
186;Laerm;55473;48.800;9.002;2023-06-22T09:17:26;53.29;43.55;65.84;;
186;Laerm;55473;48.800;9.002;2023-06-22T09:19:52;53.16;42.74;65.98;;
186;Laerm;55473;48.800;9.002;2023-06-22T09:22:18;51.75;42.13;65.96;;
186;Laerm;55473;48.800;9.002;2023-06-22T09:24:44;53.92;40.34;69.78;;
186;Laerm;55473;48.800;9.002;2023-06-22T09:27:10;56.44;42.07;74.97;;
186;Laerm;55473;48.800;9.002;2023-06-22T09:29:36;56.05;43.17;69.98;;
186;Laerm;55473;48.800;9.002;2023-06-22T09:32:02;53.79;42.45;69.40;;
186;Laerm;55473;48.800;9.002;2023-06-22T09:34:28;52.12;42.55;63.67;;
186;Laerm;55473;48.800;9.002;2023-06-22T09:36:54;53.40;41.71;65.48;;
186;Laerm;55473;48.800;9.002;2023-06-22T09:39:20;50.15;42.28;63.01;;
186;Laerm;55473;48.800;9.002;2023-06-22T09:41:46;52.43;42.09;66.10;;
186;Laerm;55473;48.800;9.002;2023-06-22T09:44:12;54.31;42.34;67.48;;
186;Laerm;55473;48.800;9.002;2023-06-22T09:46:38;54.08;42.59;71.79;;
186;Laerm;55473;48.800;9.002;2023-06-22T09:49:04;53.74;42.30;65.46;;
186;Laerm;55473;48.800;9.002;2023-06-22T09:51:30;54.93;41.66;69.14;;
186;Laerm;55473;48.800;9.002;2023-06-22T09:53:56;56.30;42.17;74.72;;
186;Laerm;55473;48.800;9.002;2023-06-22T09:56:22;53.21;41.89;70.00;;
186;Laerm;55473;48.800;9.002;2023-06-22T09:58:48;55.49;40.69;71.40;;
186;Laerm;55473;48.800;9.002;2023-06-22T10:01:15;55.82;43.09;69.00;;
186;Laerm;55473;48.800;9.002;2023-06-22T10:03:42;56.67;43.79;72.38;;
186;Laerm;55473;48.800;9.002;2023-06-22T10:06:08;56.39;42.82;70.12;;
186;Laerm;55473;48.800;9.002;2023-06-22T10:08:37;56.67;42.34;70.45;;
186;Laerm;55473;48.800;9.002;2023-06-22T10:11:04;56.28;40.68;71.15;;
186;Laerm;55473;48.800;9.002;2023-06-22T10:13:31;53.24;40.67;68.13;;
186;Laerm;55473;48.800;9.002;2023-06-22T10:15:57;54.31;41.00;66.37;;
186;Laerm;55473;48.800;9.002;2023-06-22T10:18:23;56.05;41.36;71.45;;
186;Laerm;55473;48.800;9.002;2023-06-22T10:20:50;54.60;40.48;68.67;;
186;Laerm;55473;48.800;9.002;2023-06-22T10:23:20;52.69;40.43;71.23;;
186;Laerm;55473;48.800;9.002;2023-06-22T10:25:46;54.27;41.06;69.48;;
186;Laerm;55473;48.800;9.002;2023-06-22T10:28:12;56.24;41.54;69.52;;
186;Laerm;55473;48.800;9.002;2023-06-22T10:30:42;56.16;41.15;72.72;;
186;Laerm;55473;48.800;9.002;2023-06-22T10:33:09;55.89;41.26;70.73;;
186;Laerm;55473;48.800;9.002;2023-06-22T10:35:38;54.98;40.37;71.54;;
186;Laerm;55473;48.800;9.002;2023-06-22T10:38:04;51.89;40.01;69.06;;
186;Laerm;55473;48.800;9.002;2023-06-22T10:40:31;51.73;40.22;66.12;;
186;Laerm;55473;48.800;9.002;2023-06-22T10:42:57;57.42;42.12;71.48;;
186;Laerm;55473;48.800;9.002;2023-06-22T10:45:23;53.96;41.13;66.71;;
186;Laerm;55473;48.800;9.002;2023-06-22T10:47:48;53.73;40.29;67.48;;
186;Laerm;55473;48.800;9.002;2023-06-22T10:50:15;52.67;41.39;69.81;;
186;Laerm;55473;48.800;9.002;2023-06-22T10:52:40;53.58;40.91;68.33;;
186;Laerm;55473;48.800;9.002;2023-06-22T10:55:10;53.47;41.45;70.46;;
186;Laerm;55473;48.800;9.002;2023-06-22T10:57:36;52.33;42.60;67.03;;
186;Laerm;55473;48.800;9.002;2023-06-22T11:00:03;53.56;41.97;69.41;;
186;Laerm;55473;48.800;9.002;2023-06-22T11:02:31;52.99;42.16;66.00;;
186;Laerm;55473;48.800;9.002;2023-06-22T11:04:57;55.39;41.95;73.06;;
186;Laerm;55473;48.800;9.002;2023-06-22T11:07:26;54.25;41.99;68.33;;
186;Laerm;55473;48.800;9.002;2023-06-22T11:09:54;52.32;42.08;66.01;;
186;Laerm;55473;48.800;9.002;2023-06-22T11:12:20;52.44;42.28;65.69;;
186;Laerm;55473;48.800;9.002;2023-06-22T11:14:46;52.97;41.18;64.67;;
186;Laerm;55473;48.800;9.002;2023-06-22T11:17:12;52.08;40.68;66.78;;
186;Laerm;55473;48.800;9.002;2023-06-22T11:19:38;51.69;41.34;75.23;;
186;Laerm;55473;48.800;9.002;2023-06-22T11:22:04;48.56;40.52;63.86;;
186;Laerm;55473;48.800;9.002;2023-06-22T11:24:30;47.62;40.00;62.63;;
186;Laerm;55473;48.800;9.002;2023-06-22T11:26:56;50.11;41.38;66.88;;
186;Laerm;55473;48.800;9.002;2023-06-22T11:29:22;52.84;40.13;70.34;;
186;Laerm;55473;48.800;9.002;2023-06-22T11:31:48;52.98;43.84;70.14;;
186;Laerm;55473;48.800;9.002;2023-06-22T11:34:14;50.49;41.68;65.13;;
186;Laerm;55473;48.800;9.002;2023-06-22T11:36:40;49.47;40.90;63.69;;
186;Laerm;55473;48.800;9.002;2023-06-22T11:39:08;50.97;41.69;63.99;;
186;Laerm;55473;48.800;9.002;2023-06-22T11:41:35;55.46;42.10;69.67;;
186;Laerm;55473;48.800;9.002;2023-06-22T11:44:01;56.49;42.50;72.78;;
186;Laerm;55473;48.800;9.002;2023-06-22T11:46:27;56.04;42.35;75.56;;
186;Laerm;55473;48.800;9.002;2023-06-22T11:48:53;54.28;43.43;75.09;;
186;Laerm;55473;48.800;9.002;2023-06-22T11:51:19;49.64;41.98;62.23;;
186;Laerm;55473;48.800;9.002;2023-06-22T11:53:44;52.20;41.26;66.03;;
186;Laerm;55473;48.800;9.002;2023-06-22T11:56:10;52.39;41.12;65.25;;
186;Laerm;55473;48.800;9.002;2023-06-22T11:58:36;54.55;41.64;68.12;;
186;Laerm;55473;48.800;9.002;2023-06-22T12:01:02;54.13;41.27;68.55;;
186;Laerm;55473;48.800;9.002;2023-06-22T12:03:28;53.67;41.39;66.80;;
186;Laerm;55473;48.800;9.002;2023-06-22T12:05:54;50.16;41.79;64.07;;
186;Laerm;55473;48.800;9.002;2023-06-22T12:08:20;53.09;40.53;68.23;;
186;Laerm;55473;48.800;9.002;2023-06-22T12:10:46;51.94;39.95;68.92;;
186;Laerm;55473;48.800;9.002;2023-06-22T12:13:12;51.33;40.71;64.76;;
186;Laerm;55473;48.800;9.002;2023-06-22T12:15:38;53.56;42.13;67.07;;
186;Laerm;55473;48.800;9.002;2023-06-22T12:18:04;53.65;42.35;69.15;;
186;Laerm;55473;48.800;9.002;2023-06-22T12:20:30;51.37;42.22;65.35;;
186;Laerm;55473;48.800;9.002;2023-06-22T12:22:57;50.71;40.78;64.99;;
186;Laerm;55473;48.800;9.002;2023-06-22T12:25:23;51.85;40.16;65.00;;
186;Laerm;55473;48.800;9.002;2023-06-22T12:27:50;54.03;41.06;67.19;;
186;Laerm;55473;48.800;9.002;2023-06-22T12:30:16;53.06;41.29;69.89;;
186;Laerm;55473;48.800;9.002;2023-06-22T12:32:42;53.12;42.19;68.37;;
186;Laerm;55473;48.800;9.002;2023-06-22T12:35:08;51.89;41.88;67.63;;
186;Laerm;55473;48.800;9.002;2023-06-22T12:37:43;52.00;41.46;67.13;;
186;Laerm;55473;48.800;9.002;2023-06-22T12:40:10;50.82;40.66;68.92;;
186;Laerm;55473;48.800;9.002;2023-06-22T12:42:36;51.78;42.25;69.85;;
186;Laerm;55473;48.800;9.002;2023-06-22T12:45:02;53.34;42.35;67.09;;
186;Laerm;55473;48.800;9.002;2023-06-22T12:47:28;54.36;42.19;69.90;;
186;Laerm;55473;48.800;9.002;2023-06-22T12:49:54;54.56;42.05;70.78;;
186;Laerm;55473;48.800;9.002;2023-06-22T12:52:20;52.80;41.46;70.29;;
186;Laerm;55473;48.800;9.002;2023-06-22T12:54:46;51.72;41.19;67.14;;
186;Laerm;55473;48.800;9.002;2023-06-22T12:57:12;49.55;41.76;65.91;;
186;Laerm;55473;48.800;9.002;2023-06-22T12:59:38;51.66;42.50;67.71;;
186;Laerm;55473;48.800;9.002;2023-06-22T13:02:07;49.49;41.84;61.45;;
186;Laerm;55473;48.800;9.002;2023-06-22T13:04:33;52.95;40.83;70.14;;
186;Laerm;55473;48.800;9.002;2023-06-22T13:06:59;49.44;40.78;66.47;;
186;Laerm;55473;48.800;9.002;2023-06-22T13:09:25;51.55;40.28;70.98;;
186;Laerm;55473;48.800;9.002;2023-06-22T13:11:57;53.64;45.87;69.62;;
186;Laerm;55473;48.800;9.002;2023-06-22T13:14:22;55.07;45.34;72.46;;
186;Laerm;55473;48.800;9.002;2023-06-22T13:16:49;55.14;42.20;71.04;;
186;Laerm;55473;48.800;9.002;2023-06-22T13:19:15;51.55;44.44;67.03;;
186;Laerm;55473;48.800;9.002;2023-06-22T13:21:41;53.19;42.31;70.52;;
186;Laerm;55473;48.800;9.002;2023-06-22T13:24:07;55.51;42.13;76.12;;
186;Laerm;55473;48.800;9.002;2023-06-22T13:26:33;60.00;42.58;80.92;;
186;Laerm;55473;48.800;9.002;2023-06-22T13:28:59;60.31;41.80;78.19;;
186;Laerm;55473;48.800;9.002;2023-06-22T13:31:25;57.07;41.36;77.52;;
186;Laerm;55473;48.800;9.002;2023-06-22T13:33:51;57.93;40.44;75.83;;
186;Laerm;55473;48.800;9.002;2023-06-22T13:36:18;53.98;40.99;72.12;;
186;Laerm;55473;48.800;9.002;2023-06-22T13:38:45;55.03;43.18;77.81;;
186;Laerm;55473;48.800;9.002;2023-06-22T13:41:11;54.22;41.78;72.00;;
186;Laerm;55473;48.800;9.002;2023-06-22T13:43:36;56.16;42.46;72.65;;
186;Laerm;55473;48.800;9.002;2023-06-22T13:46:02;55.97;41.77;73.27;;
186;Laerm;55473;48.800;9.002;2023-06-22T13:48:28;52.78;43.69;67.22;;
186;Laerm;55473;48.800;9.002;2023-06-22T13:50:54;52.12;41.23;67.38;;
186;Laerm;55473;48.800;9.002;2023-06-22T13:53:20;51.14;40.87;65.86;;
186;Laerm;55473;48.800;9.002;2023-06-22T13:55:46;50.35;41.21;66.84;;
186;Laerm;55473;48.800;9.002;2023-06-22T13:58:13;48.46;41.07;66.17;;
186;Laerm;55473;48.800;9.002;2023-06-22T14:00:39;50.29;42.76;61.20;;
186;Laerm;55473;48.800;9.002;2023-06-22T14:03:05;54.45;41.61;71.33;;
186;Laerm;55473;48.800;9.002;2023-06-22T14:05:31;55.57;41.29;76.19;;
186;Laerm;55473;48.800;9.002;2023-06-22T14:07:57;50.64;42.92;67.56;;
186;Laerm;55473;48.800;9.002;2023-06-22T14:10:23;49.62;42.67;61.21;;
186;Laerm;55473;48.800;9.002;2023-06-22T14:12:48;53.39;42.11;78.16;;